Stuttgart Airport

Airport
ICAO code: 
EDDS
IATA Code: 
STR
Summary
ICAO Region: 
EUR
Territory: 
Location: 
Echterdingen, Stuttgart,
Serving: 
Stuttgart
Elevation: 
1276 ft
Coordinates: 
Aerial View: 
48° 41' 16.983" N, 9° 12' 37.356" E
Metar
Observation
EDDS 010650Z AUTO 32003KT 270V030 9999 -RA FEW009 BKN025 13/12 Q1019 NOSIG
Station
Stuttgart-Echterdingen
Date/Time
2022-07-01 06:50:00
Wind direction
320°
Wind speed
03 kts
Lowest cloud amount
few clouds
Temperature
13°C
Dew point
12°C
Humidity
93%
QNH
1019 hPa
Weather condition
light rain

Description

International airport serving Stuttgart, Germany.

Climatology

Temperate Marine climate/Oceanic climate (Köppen climate classification Cfb) - Moderately cool summer and comparatively warm winter.

Runways

Designator Length Width Surface Rops
7/25 3345 45 CON Yes/Yes
Airport map: 
Aerial View: 

SKYbrary Partners:

Safety knowledge contributed by: